Luminous Kobe-2 — JJ3868 — position and weather

sailwx.info

Track history (hours):
 
Tides and Currents Weather Stations Pressure Air Temp Water Temp Dewpoint Dewpoint Depression Visibility Wind Speed Wind Dir Waves Ship Positions

Luminous Kobe-2

Last reported at 2016-Aug-25 12:26 UTC. Time now 2016-Aug-25 13:11 UTC.
Position N 34°41' E 135°11'.

Length 105 m; draft 4.5 m.

Type: Passenger vessel. MMSI: 431000469.

Date/timePositionNaut miles runAvg speedWind from/ knotsBaromVisibWave heightAir tempDewpointWater temp
2016-Aug-25 12:26N 34°41' E 135°11'6 7.0
2016-Aug-25 11:33N 34°36' E 135°06'1 1.0
2016-Aug-25 10:33N 34°37' E 135°07'5 5.1
2016-Aug-25 09:33N 34°41' E 135°11'4 4.4
2016-Aug-25 08:33N 34°38' E 135°08'4 4.3
2016-Aug-25 07:31N 34°41' E 135°11'0 0.0
2016-Aug-25 06:31N 34°41' E 135°11'2 1.1
2016-Aug-25 04:33N 34°39' E 135°11'3 2.5
2016-Aug-25 03:33N 34°37' E 135°14'4 4.0
2016-Aug-25 02:30N 34°41' E 135°11'0 0.0
2016-Aug-25 01:30N 34°41' E 135°11'0 0.0
2016-Aug-25 00:24N 34°41' E 135°11'0 0.0
2016-Aug-24 23:30N 34°41' E 135°11'0 0.0
2016-Aug-24 22:24N 34°41' E 135°11'0 0.0
2016-Aug-24 21:12N 34°41' E 135°11'0 0.0
2016-Aug-24 20:24N 34°41' E 135°11'0 0.0
2016-Aug-24 19:30N 34°41' E 135°11'0 0.0
2016-Aug-24 18:30N 34°41' E 135°11'0 0.0
2016-Aug-24 17:24N 34°41' E 135°11'0 0.0
2016-Aug-24 16:30N 34°41' E 135°11'0 0.0
2016-Aug-24 15:30N 34°41' E 135°11'0 0.0
2016-Aug-24 14:30N 34°41' E 135°11'0 0.0
2016-Aug-24 13:24N 34°41' E 135°11'0 0.0
2016-Aug-24 12:30N 34°41' E 135°11'8 8.3
2016-Aug-24 11:34N 34°35' E 135°05'3 2.9
2016-Aug-24 10:33N 34°37' E 135°07'5 4.8
2016-Aug-24 09:32N 34°41' E 135°11'4 4.4
2016-Aug-24 08:34N 34°38' E 135°08'4 3.8
2016-Aug-24 07:27N 34°41' E 135°11'0 0.0
2016-Aug-24 06:33N 34°41' E 135°11'2 1.2
2016-Aug-24 04:34N 34°38' E 135°11'1 1.1
2016-Aug-24 03:33N 34°38' E 135°12'3 2.8
2016-Aug-24 02:21N 34°41' E 135°11'0 0.0
2016-Aug-24 01:27N 34°41' E 135°11'0 0.0
2016-Aug-24 00:33N 34°41' E 135°11'0 0.0
2016-Aug-23 23:33N 34°41' E 135°11'0 0.0
2016-Aug-23 22:33N 34°41' E 135°11'0 0.0
2016-Aug-23 21:33N 34°41' E 135°11'0 0.0
2016-Aug-23 20:33N 34°41' E 135°11'0 0.0
2016-Aug-23 19:27N 34°41' E 135°11'0 0.0
2016-Aug-23 18:33N 34°41' E 135°11'0 0.0
2016-Aug-23 17:33N 34°41' E 135°11'0 0.0
2016-Aug-23 16:33N 34°41' E 135°11'0 0.0
2016-Aug-23 15:33N 34°41' E 135°11'0 0.0
2016-Aug-23 14:27N 34°41' E 135°11'0 0.0
2016-Aug-23 13:33N 34°41' E 135°11'0 0.0
2016-Aug-23 12:33N 34°41' E 135°11'7 6.8
2016-Aug-23 11:33N 34°35' E 135°07'2 1.9
2016-Aug-23 10:33N 34°37' E 135°07'5 4.7
2016-Aug-23 09:24N 34°41' E 135°11'5 5.4
2016-Aug-23 08:33N 34°38' E 135°07'5 4.4
2016-Aug-23 07:31N 34°41' E 135°11'0 0.0
2016-Aug-23 06:31N 34°41' E 135°11'0 0.0
2016-Aug-23 05:25N 34°41' E 135°11'2 2.6
2016-Aug-23 04:33N 34°39' E 135°11'3 2.5
2016-Aug-23 03:33N 34°37' E 135°14'4 3.7
2016-Aug-23 02:28N 34°41' E 135°11'0 0.0
2016-Aug-23 01:28N 34°41' E 135°11'0 0.0
2016-Aug-23 00:28N 34°41' E 135°11'0 0.0
2016-Aug-22 23:28N 34°41' E 135°11'0 0.0
2016-Aug-22 22:28N 34°41' E 135°11'0 0.0
2016-Aug-22 21:16N 34°41' E 135°11'0 0.0
2016-Aug-22 20:22N 34°41' E 135°11'0 0.0
2016-Aug-22 19:28N 34°41' E 135°11'0 0.0
2016-Aug-22 18:28N 34°41' E 135°11'0 0.0
2016-Aug-22 17:28N 34°41' E 135°11'0 0.0
2016-Aug-22 16:28N 34°41' E 135°11'0 0.0
2016-Aug-22 15:22N 34°41' E 135°11'0 0.0
2016-Aug-22 14:22N 34°41' E 135°11'0 0.0
2016-Aug-22 13:28N 34°41' E 135°11'0 0.0
2016-Aug-22 12:28N 34°41' E 135°11'6 6.4
2016-Aug-22 11:33N 34°36' E 135°07'1 1.2
2016-Aug-22 10:33N 34°37' E 135°07'5 5.2
2016-Aug-22 09:30N 34°41' E 135°11'5 5.0
2016-Aug-22 08:34N 34°38' E 135°07'5 2.0
2016-Aug-22 06:09N 34°41' E 135°11'0 0.0
2016-Aug-22 05:33N 34°41' E 135°11'2 2.5
2016-Aug-22 04:33N 34°38' E 135°11'3 2.5
2016-Aug-22 03:33N 34°37' E 135°14'4 3.6
2016-Aug-22 02:28N 34°41' E 135°11'0 0.0
2016-Aug-22 01:28N 34°41' E 135°11'0 0.0
2016-Aug-22 00:28N 34°41' E 135°11'0 0.0
2016-Aug-21 23:28N 34°41' E 135°11'0 0.0
2016-Aug-21 22:28N 34°41' E 135°11'0 0.0
2016-Aug-21 21:10N 34°41' E 135°11'0 0.0
2016-Aug-21 20:16N 34°41' E 135°11'0 0.0
2016-Aug-21 18:22N 34°41' E 135°11'0 0.0
2016-Aug-21 17:28N 34°41' E 135°11'0 0.0
2016-Aug-21 16:22N 34°41' E 135°11'0 0.0
2016-Aug-21 15:10N 34°41' E 135°11'0 0.0
2016-Aug-21 14:28N 34°41' E 135°11'0 0.0
2016-Aug-21 13:28N 34°41' E 135°11'0 0.0
2016-Aug-21 12:22N 34°41' E 135°11'7 8.9
2016-Aug-21 11:33N 34°35' E 135°06'2 1.9
2016-Aug-21 10:33N 34°37' E 135°07'5 5.3
2016-Aug-21 09:33N 34°41' E 135°11'2 2.5
2016-Aug-21 08:33N 34°38' E 135°11'3 2.7
2016-Aug-21 07:33N 34°37' E 135°14'4 3.8
2016-Aug-21 06:28N 34°41' E 135°11'0 0.0
2016-Aug-21 05:28N 34°41' E 135°11'2 2.7
2016-Aug-21 04:33N 34°38' E 135°11'3 2.8
2016-Aug-21 03:33N 34°37' E 135°14'4 4.0
2016-Aug-21 02:30N 34°41' E 135°11'0 0.0
2016-Aug-21 01:30N 34°41' E 135°11'0 0.0
2016-Aug-21 00:30N 34°41' E 135°11'0 0.0
2016-Aug-20 23:30N 34°41' E 135°11'0 0.0
2016-Aug-20 22:30N 34°41' E 135°11'0 0.0
2016-Aug-20 21:30N 34°41' E 135°11'0 0.0
2016-Aug-20 20:30N 34°41' E 135°11'0 0.0
2016-Aug-20 19:30N 34°41' E 135°11'0 0.0
2016-Aug-20 18:30N 34°41' E 135°11'0 0.0
2016-Aug-20 17:30N 34°41' E 135°11'0 0.0
2016-Aug-20 16:30N 34°41' E 135°11'0 0.0
2016-Aug-20 15:24N 34°41' E 135°11'0 0.0
2016-Aug-20 14:30N 34°41' E 135°11'0 0.0
2016-Aug-20 13:30N 34°41' E 135°11'0 0.0
2016-Aug-20 12:24N 34°41' E 135°11'8 8.9
2016-Aug-20 11:33N 34°35' E 135°06'2 2.2
2016-Aug-20 10:33N 34°37' E 135°07'5 5.0
2016-Aug-20 09:28N 34°41' E 135°11'3 3.3
2016-Aug-20 08:33N 34°38' E 135°10'3 3.3
2016-Aug-20 07:33N 34°37' E 135°14'4 3.9
2016-Aug-20 06:29N 34°41' E 135°11'0 0.0
2016-Aug-20 05:29N 34°41' E 135°11'3 2.7
2016-Aug-20 04:33N 34°38' E 135°11'3 2.7
2016-Aug-20 03:33N 34°37' E 135°14'4 3.9
2016-Aug-20 02:28N 34°41' E 135°11'0 0.0
2016-Aug-20 01:22N 34°41' E 135°11'0 0.0
2016-Aug-20 00:22N 34°41' E 135°11'0 0.0
2016-Aug-19 23:28N 34°41' E 135°11'0 0.0
2016-Aug-19 22:28N 34°41' E 135°11'0 0.0
2016-Aug-19 21:28N 34°41' E 135°11'0 0.0
2016-Aug-19 20:28N 34°41' E 135°11'0 0.0
2016-Aug-19 19:28N 34°41' E 135°11'0 0.0
2016-Aug-19 18:28N 34°41' E 135°11'0 0.0
2016-Aug-19 17:28N 34°41' E 135°11'0 0.0
2016-Aug-19 16:22N 34°41' E 135°11'0 0.0
2016-Aug-19 15:28N 34°41' E 135°11'0 0.0
2016-Aug-19 14:22N 34°41' E 135°11'0 0.0
2016-Aug-19 13:28N 34°41' E 135°11'0 0.0
2016-Aug-19 12:18N 34°41' E 135°11'7 9.9
2016-Aug-19 11:34N 34°35' E 135°06'2 2.0
2016-Aug-19 10:33N 34°37' E 135°07'5 4.2
2016-Aug-19 09:18N 34°41' E 135°11'5 6.1
2016-Aug-19 08:33N 34°38' E 135°07'5 4.5
2016-Aug-19 07:33N 34°41' E 135°11'0 0.0
2016-Aug-19 06:27N 34°41' E 135°11'0 0.0
2016-Aug-19 05:27N 34°41' E 135°11'3 2.9
2016-Aug-19 04:33N 34°38' E 135°11'2 2.5
2016-Aug-19 03:33N 34°37' E 135°14'4 3.9
2016-Aug-19 02:29N 34°41' E 135°11'0 0.0
2016-Aug-19 01:29N 34°41' E 135°11'0 0.0
2016-Aug-19 00:29N 34°41' E 135°11'0 0.0
2016-Aug-18 23:29N 34°41' E 135°11'0 0.0
2016-Aug-18 22:29N 34°41' E 135°11'0 0.0
2016-Aug-18 21:29N 34°41' E 135°11'0 0.0
2016-Aug-18 20:29N 34°41' E 135°11'0 0.0
2016-Aug-18 19:29N 34°41' E 135°11'0 0.0
2016-Aug-18 18:17N 34°41' E 135°11'0 0.0
2016-Aug-18 17:23N 34°41' E 135°11'0 0.0
2016-Aug-18 16:29N 34°41' E 135°11'0 0.0
2016-Aug-18 15:29N 34°41' E 135°11'0 0.0
2016-Aug-18 14:29N 34°41' E 135°11'0 0.0
2016-Aug-18 13:23N 34°41' E 135°11'0 0.0
2016-Aug-18 12:29N 34°41' E 135°11'6 6.9
2016-Aug-18 11:33N 34°36' E 135°06'1 1.0
2016-Aug-18 10:33N 34°37' E 135°07'6 5.1
2016-Aug-18 09:29N 34°41' E 135°11'5 5.4
2016-Aug-18 08:33N 34°38' E 135°07'5 4.9
2016-Aug-18 07:33N 34°41' E 135°11'0 0.0
2016-Aug-18 06:33N 34°41' E 135°11'0 0.0
2016-Aug-18 05:33N 34°41' E 135°11'2 2.4
2016-Aug-18 04:33N 34°38' E 135°11'2 2.2
2016-Aug-18 03:33N 34°37' E 135°13'4 4.0
2016-Aug-18 02:33N 34°41' E 135°11'0 0.0
2016-Aug-18 01:33N 34°41' E 135°11'0 0.0
2016-Aug-18 00:33N 34°41' E 135°11'0 0.0
2016-Aug-17 23:33N 34°41' E 135°11'0 0.0
2016-Aug-17 22:33N 34°41' E 135°11'0 0.0
2016-Aug-17 21:33N 34°41' E 135°11'0 0.0
2016-Aug-17 20:33N 34°41' E 135°11'0 0.0
2016-Aug-17 19:33N 34°41' E 135°11'0 0.0
2016-Aug-17 18:33N 34°41' E 135°11'0 0.0
2016-Aug-17 17:27N 34°41' E 135°11'0 0.0
2016-Aug-17 16:27N 34°41' E 135°11'0 0.0
2016-Aug-17 15:33N 34°41' E 135°11'0 0.0
2016-Aug-17 14:33N 34°41' E 135°11'0 0.0
2016-Aug-17 13:33N 34°41' E 135°11'0 0.0
2016-Aug-17 12:33N 34°41' E 135°11'6 6.6
2016-Aug-17 11:34N 34°36' E 135°06'1 1.0
2016-Aug-17 10:33N 34°37' E 135°07'6 4.7
2016-Aug-17 09:22N 34°41' E 135°11'5 6.0
2016-Aug-17 08:33N 34°38' E 135°07'5 4.2
2016-Aug-17 07:25N 34°41' E 135°11'0 0.0
2016-Aug-17 06:19N 34°41' E 135°11'0 0.0
2016-Aug-17 05:25N 34°41' E 135°11'2 2.4
2016-Aug-17 04:33N 34°39' E 135°11'2 2.5
2016-Aug-17 03:33N 34°37' E 135°14'4 4.1
2016-Aug-17 02:33N 34°41' E 135°11'0 0.0
2016-Aug-17 01:33N 34°41' E 135°11'0 0.0
2016-Aug-17 00:33N 34°41' E 135°11'0 0.0
2016-Aug-16 23:27N 34°41' E 135°11'0 0.0
2016-Aug-16 22:27N 34°41' E 135°11'0 0.0
2016-Aug-16 21:27N 34°41' E 135°11'0 0.0
2016-Aug-16 20:33N 34°41' E 135°11'0 0.0
2016-Aug-16 19:33N 34°41' E 135°11'0 0.0
2016-Aug-16 18:33N 34°41' E 135°11'0 0.0
2016-Aug-16 17:33N 34°41' E 135°11'0 0.0
2016-Aug-16 16:33N 34°41' E 135°11'0 0.0
2016-Aug-16 15:33N 34°41' E 135°11'0 0.0
2016-Aug-16 14:33N 34°41' E 135°11'0 0.0
2016-Aug-16 13:33N 34°41' E 135°11'0 0.0
2016-Aug-16 12:33N 34°41' E 135°11'6 6.4
2016-Aug-16 11:33N 34°36' E 135°07'1 1.3
2016-Aug-16 10:33N 34°37' E 135°07'5 5.0
2016-Aug-16 09:29N 34°41' E 135°11'5 5.2
2016-Aug-16 08:33N 34°38' E 135°07'5 4.3
2016-Aug-16 07:27N 34°41' E 135°11'2 0.8
2016-Aug-16 04:33N 34°39' E 135°11'3 2.7
2016-Aug-16 03:33N 34°37' E 135°14'4 3.9
2016-Aug-16 02:29N 34°41' E 135°11'0 0.0
2016-Aug-16 01:29N 34°41' E 135°11'0 0.0
2016-Aug-16 00:29N 34°41' E 135°11'0 0.0
2016-Aug-15 23:29N 34°41' E 135°11'0 0.0
2016-Aug-15 22:29N 34°41' E 135°11'0 0.0
2016-Aug-15 21:29N 34°41' E 135°11'0 0.0
2016-Aug-15 20:23N 34°41' E 135°11'0 0.0
2016-Aug-15 19:29N 34°41' E 135°11'0 0.0
2016-Aug-15 18:29N 34°41' E 135°11'0 0.0
2016-Aug-15 17:29N 34°41' E 135°11'0 0.0
2016-Aug-15 16:29N 34°41' E 135°11'0 0.0
2016-Aug-15 15:29N 34°41' E 135°11'0 0.0
2016-Aug-15 14:29N 34°41' E 135°11'0 0.0
2016-Aug-15 13:29N 34°41' E 135°11'0 0.0
2016-Aug-15 12:29N 34°41' E 135°11'  
Track history (hours):
 
Tides and Currents Weather Stations Pressure Air Temp Water Temp Dewpoint Dewpoint Depression Visibility Wind Speed Wind Dir Waves Ship Positions

Luminous Kobe-2

Last reported at 2016-Aug-25 12:26 UTC. Time now 2016-Aug-25 13:11 UTC.
Position N 34°41' E 135°11'.

Length 105 m; draft 4.5 m.

Type: Passenger vessel. MMSI: 431000469.

Date/timePositionNaut miles runAvg speedWind from/ knotsBaromVisibWave heightAir tempDewpointWater temp
2016-Aug-25 12:26N 34°41' E 135°11'6 7.0
2016-Aug-25 11:33N 34°36' E 135°06'1 1.0
2016-Aug-25 10:33N 34°37' E 135°07'5 5.1
2016-Aug-25 09:33N 34°41' E 135°11'4 4.4
2016-Aug-25 08:33N 34°38' E 135°08'4 4.3
2016-Aug-25 07:31N 34°41' E 135°11'0 0.0
2016-Aug-25 06:31N 34°41' E 135°11'2 1.1
2016-Aug-25 04:33N 34°39' E 135°11'3 2.5
2016-Aug-25 03:33N 34°37' E 135°14'4 4.0
2016-Aug-25 02:30N 34°41' E 135°11'0 0.0
2016-Aug-25 01:30N 34°41' E 135°11'0 0.0
2016-Aug-25 00:24N 34°41' E 135°11'0 0.0
2016-Aug-24 23:30N 34°41' E 135°11'0 0.0
2016-Aug-24 22:24N 34°41' E 135°11'0 0.0
2016-Aug-24 21:12N 34°41' E 135°11'0 0.0
2016-Aug-24 20:24N 34°41' E 135°11'0 0.0
2016-Aug-24 19:30N 34°41' E 135°11'0 0.0
2016-Aug-24 18:30N 34°41' E 135°11'0 0.0
2016-Aug-24 17:24N 34°41' E 135°11'0 0.0
2016-Aug-24 16:30N 34°41' E 135°11'0 0.0
2016-Aug-24 15:30N 34°41' E 135°11'0 0.0
2016-Aug-24 14:30N 34°41' E 135°11'0 0.0
2016-Aug-24 13:24N 34°41' E 135°11'0 0.0
2016-Aug-24 12:30N 34°41' E 135°11'8 8.3
2016-Aug-24 11:34N 34°35' E 135°05'3 2.9
2016-Aug-24 10:33N 34°37' E 135°07'5 4.8
2016-Aug-24 09:32N 34°41' E 135°11'4 4.4
2016-Aug-24 08:34N 34°38' E 135°08'4 3.8
2016-Aug-24 07:27N 34°41' E 135°11'0 0.0
2016-Aug-24 06:33N 34°41' E 135°11'2 1.2
2016-Aug-24 04:34N 34°38' E 135°11'1 1.1
2016-Aug-24 03:33N 34°38' E 135°12'3 2.8
2016-Aug-24 02:21N 34°41' E 135°11'0 0.0
2016-Aug-24 01:27N 34°41' E 135°11'0 0.0
2016-Aug-24 00:33N 34°41' E 135°11'0 0.0
2016-Aug-23 23:33N 34°41' E 135°11'0 0.0
2016-Aug-23 22:33N 34°41' E 135°11'0 0.0
2016-Aug-23 21:33N 34°41' E 135°11'0 0.0
2016-Aug-23 20:33N 34°41' E 135°11'0 0.0
2016-Aug-23 19:27N 34°41' E 135°11'0 0.0
2016-Aug-23 18:33N 34°41' E 135°11'0 0.0
2016-Aug-23 17:33N 34°41' E 135°11'0 0.0
2016-Aug-23 16:33N 34°41' E 135°11'0 0.0
2016-Aug-23 15:33N 34°41' E 135°11'0 0.0
2016-Aug-23 14:27N 34°41' E 135°11'0 0.0
2016-Aug-23 13:33N 34°41' E 135°11'0 0.0
2016-Aug-23 12:33N 34°41' E 135°11'7 6.8
2016-Aug-23 11:33N 34°35' E 135°07'2 1.9
2016-Aug-23 10:33N 34°37' E 135°07'5 4.7
2016-Aug-23 09:24N 34°41' E 135°11'5 5.4
2016-Aug-23 08:33N 34°38' E 135°07'5 4.4
2016-Aug-23 07:31N 34°41' E 135°11'0 0.0
2016-Aug-23 06:31N 34°41' E 135°11'0 0.0
2016-Aug-23 05:25N 34°41' E 135°11'2 2.6
2016-Aug-23 04:33N 34°39' E 135°11'3 2.5
2016-Aug-23 03:33N 34°37' E 135°14'4 3.7
2016-Aug-23 02:28N 34°41' E 135°11'0 0.0
2016-Aug-23 01:28N 34°41' E 135°11'0 0.0
2016-Aug-23 00:28N 34°41' E 135°11'0 0.0
2016-Aug-22 23:28N 34°41' E 135°11'0 0.0
2016-Aug-22 22:28N 34°41' E 135°11'0 0.0
2016-Aug-22 21:16N 34°41' E 135°11'0 0.0
2016-Aug-22 20:22N 34°41' E 135°11'0 0.0
2016-Aug-22 19:28N 34°41' E 135°11'0 0.0
2016-Aug-22 18:28N 34°41' E 135°11'0 0.0
2016-Aug-22 17:28N 34°41' E 135°11'0 0.0
2016-Aug-22 16:28N 34°41' E 135°11'0 0.0
2016-Aug-22 15:22N 34°41' E 135°11'0 0.0
2016-Aug-22 14:22N 34°41' E 135°11'0 0.0
2016-Aug-22 13:28N 34°41' E 135°11'0 0.0
2016-Aug-22 12:28N 34°41' E 135°11'6 6.4
2016-Aug-22 11:33N 34°36' E 135°07'1 1.2
2016-Aug-22 10:33N 34°37' E 135°07'5 5.2
2016-Aug-22 09:30N 34°41' E 135°11'5 5.0
2016-Aug-22 08:34N 34°38' E 135°07'5 2.0
2016-Aug-22 06:09N 34°41' E 135°11'0 0.0
2016-Aug-22 05:33N 34°41' E 135°11'2 2.5
2016-Aug-22 04:33N 34°38' E 135°11'3 2.5
2016-Aug-22 03:33N 34°37' E 135°14'4 3.6
2016-Aug-22 02:28N 34°41' E 135°11'0 0.0
2016-Aug-22 01:28N 34°41' E 135°11'0 0.0
2016-Aug-22 00:28N 34°41' E 135°11'0 0.0
2016-Aug-21 23:28N 34°41' E 135°11'0 0.0
2016-Aug-21 22:28N 34°41' E 135°11'0 0.0
2016-Aug-21 21:10N 34°41' E 135°11'0 0.0
2016-Aug-21 20:16N 34°41' E 135°11'0 0.0
2016-Aug-21 18:22N 34°41' E 135°11'0 0.0
2016-Aug-21 17:28N 34°41' E 135°11'0 0.0
2016-Aug-21 16:22N 34°41' E 135°11'0 0.0
2016-Aug-21 15:10N 34°41' E 135°11'0 0.0
2016-Aug-21 14:28N 34°41' E 135°11'0 0.0
2016-Aug-21 13:28N 34°41' E 135°11'0 0.0
2016-Aug-21 12:22N 34°41' E 135°11'7 8.9
2016-Aug-21 11:33N 34°35' E 135°06'2 1.9
2016-Aug-21 10:33N 34°37' E 135°07'5 5.3
2016-Aug-21 09:33N 34°41' E 135°11'2 2.5
2016-Aug-21 08:33N 34°38' E 135°11'3 2.7
2016-Aug-21 07:33N 34°37' E 135°14'4 3.8
2016-Aug-21 06:28N 34°41' E 135°11'0 0.0
2016-Aug-21 05:28N 34°41' E 135°11'2 2.7
2016-Aug-21 04:33N 34°38' E 135°11'3 2.8
2016-Aug-21 03:33N 34°37' E 135°14'4 4.0
2016-Aug-21 02:30N 34°41' E 135°11'0 0.0
2016-Aug-21 01:30N 34°41' E 135°11'0 0.0
2016-Aug-21 00:30N 34°41' E 135°11'0 0.0
2016-Aug-20 23:30N 34°41' E 135°11'0 0.0
2016-Aug-20 22:30N 34°41' E 135°11'0 0.0
2016-Aug-20 21:30N 34°41' E 135°11'0 0.0
2016-Aug-20 20:30N 34°41' E 135°11'0 0.0
2016-Aug-20 19:30N 34°41' E 135°11'0 0.0
2016-Aug-20 18:30N 34°41' E 135°11'0 0.0
2016-Aug-20 17:30N 34°41' E 135°11'0 0.0
2016-Aug-20 16:30N 34°41' E 135°11'0 0.0
2016-Aug-20 15:24N 34°41' E 135°11'0 0.0
2016-Aug-20 14:30N 34°41' E 135°11'0 0.0
2016-Aug-20 13:30N 34°41' E 135°11'0 0.0
2016-Aug-20 12:24N 34°41' E 135°11'8 8.9
2016-Aug-20 11:33N 34°35' E 135°06'2 2.2
2016-Aug-20 10:33N 34°37' E 135°07'5 5.0
2016-Aug-20 09:28N 34°41' E 135°11'3 3.3
2016-Aug-20 08:33N 34°38' E 135°10'3 3.3
2016-Aug-20 07:33N 34°37' E 135°14'4 3.9
2016-Aug-20 06:29N 34°41' E 135°11'0 0.0
2016-Aug-20 05:29N 34°41' E 135°11'3 2.7
2016-Aug-20 04:33N 34°38' E 135°11'3 2.7
2016-Aug-20 03:33N 34°37' E 135°14'4 3.9
2016-Aug-20 02:28N 34°41' E 135°11'0 0.0
2016-Aug-20 01:22N 34°41' E 135°11'0 0.0
2016-Aug-20 00:22N 34°41' E 135°11'0 0.0
2016-Aug-19 23:28N 34°41' E 135°11'0 0.0
2016-Aug-19 22:28N 34°41' E 135°11'0 0.0
2016-Aug-19 21:28N 34°41' E 135°11'0 0.0
2016-Aug-19 20:28N 34°41' E 135°11'0 0.0
2016-Aug-19 19:28N 34°41' E 135°11'0 0.0
2016-Aug-19 18:28N 34°41' E 135°11'0 0.0
2016-Aug-19 17:28N 34°41' E 135°11'0 0.0
2016-Aug-19 16:22N 34°41' E 135°11'0 0.0
2016-Aug-19 15:28N 34°41' E 135°11'0 0.0
2016-Aug-19 14:22N 34°41' E 135°11'0 0.0
2016-Aug-19 13:28N 34°41' E 135°11'0 0.0
2016-Aug-19 12:18N 34°41' E 135°11'7 9.9
2016-Aug-19 11:34N 34°35' E 135°06'2 2.0
2016-Aug-19 10:33N 34°37' E 135°07'5 4.2
2016-Aug-19 09:18N 34°41' E 135°11'5 6.1
2016-Aug-19 08:33N 34°38' E 135°07'5 4.5
2016-Aug-19 07:33N 34°41' E 135°11'0 0.0
2016-Aug-19 06:27N 34°41' E 135°11'0 0.0
2016-Aug-19 05:27N 34°41' E 135°11'3 2.9
2016-Aug-19 04:33N 34°38' E 135°11'2 2.5
2016-Aug-19 03:33N 34°37' E 135°14'4 3.9
2016-Aug-19 02:29N 34°41' E 135°11'0 0.0
2016-Aug-19 01:29N 34°41' E 135°11'0 0.0
2016-Aug-19 00:29N 34°41' E 135°11'0 0.0
2016-Aug-18 23:29N 34°41' E 135°11'0 0.0
2016-Aug-18 22:29N 34°41' E 135°11'0 0.0
2016-Aug-18 21:29N 34°41' E 135°11'0 0.0
2016-Aug-18 20:29N 34°41' E 135°11'0 0.0
2016-Aug-18 19:29N 34°41' E 135°11'0 0.0
2016-Aug-18 18:17N 34°41' E 135°11'0 0.0
2016-Aug-18 17:23N 34°41' E 135°11'0 0.0
2016-Aug-18 16:29N 34°41' E 135°11'0 0.0
2016-Aug-18 15:29N 34°41' E 135°11'0 0.0
2016-Aug-18 14:29N 34°41' E 135°11'0 0.0
2016-Aug-18 13:23N 34°41' E 135°11'0 0.0
2016-Aug-18 12:29N 34°41' E 135°11'6 6.9
2016-Aug-18 11:33N 34°36' E 135°06'1 1.0
2016-Aug-18 10:33N 34°37' E 135°07'6 5.1
2016-Aug-18 09:29N 34°41' E 135°11'5 5.4
2016-Aug-18 08:33N 34°38' E 135°07'5 4.9
2016-Aug-18 07:33N 34°41' E 135°11'0 0.0
2016-Aug-18 06:33N 34°41' E 135°11'0 0.0
2016-Aug-18 05:33N 34°41' E 135°11'2 2.4
2016-Aug-18 04:33N 34°38' E 135°11'2 2.2
2016-Aug-18 03:33N 34°37' E 135°13'4 4.0
2016-Aug-18 02:33N 34°41' E 135°11'0 0.0
2016-Aug-18 01:33N 34°41' E 135°11'0 0.0
2016-Aug-18 00:33N 34°41' E 135°11'0 0.0
2016-Aug-17 23:33N 34°41' E 135°11'0 0.0
2016-Aug-17 22:33N 34°41' E 135°11'0 0.0
2016-Aug-17 21:33N 34°41' E 135°11'0 0.0
2016-Aug-17 20:33N 34°41' E 135°11'0 0.0
2016-Aug-17 19:33N 34°41' E 135°11'0 0.0
2016-Aug-17 18:33N 34°41' E 135°11'0 0.0
2016-Aug-17 17:27N 34°41' E 135°11'0 0.0
2016-Aug-17 16:27N 34°41' E 135°11'0 0.0
2016-Aug-17 15:33N 34°41' E 135°11'0 0.0
2016-Aug-17 14:33N 34°41' E 135°11'0 0.0
2016-Aug-17 13:33N 34°41' E 135°11'0 0.0
2016-Aug-17 12:33N 34°41' E 135°11'6 6.6
2016-Aug-17 11:34N 34°36' E 135°06'1 1.0
2016-Aug-17 10:33N 34°37' E 135°07'6 4.7
2016-Aug-17 09:22N 34°41' E 135°11'5 6.0
2016-Aug-17 08:33N 34°38' E 135°07'5 4.2
2016-Aug-17 07:25N 34°41' E 135°11'0 0.0
2016-Aug-17 06:19N 34°41' E 135°11'0 0.0
2016-Aug-17 05:25N 34°41' E 135°11'2 2.4
2016-Aug-17 04:33N 34°39' E 135°11'2 2.5
2016-Aug-17 03:33N 34°37' E 135°14'4 4.1
2016-Aug-17 02:33N 34°41' E 135°11'0 0.0
2016-Aug-17 01:33N 34°41' E 135°11'0 0.0
2016-Aug-17 00:33N 34°41' E 135°11'0 0.0
2016-Aug-16 23:27N 34°41' E 135°11'0 0.0
2016-Aug-16 22:27N 34°41' E 135°11'0 0.0
2016-Aug-16 21:27N 34°41' E 135°11'0 0.0
2016-Aug-16 20:33N 34°41' E 135°11'0 0.0
2016-Aug-16 19:33N 34°41' E 135°11'0 0.0
2016-Aug-16 18:33N 34°41' E 135°11'0 0.0
2016-Aug-16 17:33N 34°41' E 135°11'0 0.0
2016-Aug-16 16:33N 34°41' E 135°11'0 0.0
2016-Aug-16 15:33N 34°41' E 135°11'0 0.0
2016-Aug-16 14:33N 34°41' E 135°11'0 0.0
2016-Aug-16 13:33N 34°41' E 135°11'0 0.0
2016-Aug-16 12:33N 34°41' E 135°11'6 6.4
2016-Aug-16 11:33N 34°36' E 135°07'1 1.3
2016-Aug-16 10:33N 34°37' E 135°07'5 5.0
2016-Aug-16 09:29N 34°41' E 135°11'5 5.2
2016-Aug-16 08:33N 34°38' E 135°07'5 4.3
2016-Aug-16 07:27N 34°41' E 135°11'2 0.8
2016-Aug-16 04:33N 34°39' E 135°11'3 2.7
2016-Aug-16 03:33N 34°37' E 135°14'4 3.9
2016-Aug-16 02:29N 34°41' E 135°11'0 0.0
2016-Aug-16 01:29N 34°41' E 135°11'0 0.0
2016-Aug-16 00:29N 34°41' E 135°11'0 0.0
2016-Aug-15 23:29N 34°41' E 135°11'0 0.0
2016-Aug-15 22:29N 34°41' E 135°11'0 0.0
2016-Aug-15 21:29N 34°41' E 135°11'0 0.0
2016-Aug-15 20:23N 34°41' E 135°11'0 0.0
2016-Aug-15 19:29N 34°41' E 135°11'0 0.0
2016-Aug-15 18:29N 34°41' E 135°11'0 0.0
2016-Aug-15 17:29N 34°41' E 135°11'0 0.0
2016-Aug-15 16:29N 34°41' E 135°11'0 0.0
2016-Aug-15 15:29N 34°41' E 135°11'0 0.0
2016-Aug-15 14:29N 34°41' E 135°11'0 0.0
2016-Aug-15 13:29N 34°41' E 135°11'0 0.0
2016-Aug-15 12:29N 34°41' E 135°11'  

Dump ship's entire track history